Time;durP1;ratioP1;P1;durP2;ratioP2;P2;SDS_P1;SDS_P2;PMS_P1;PMS_P2;Temp;Humidity;BMP_temperature;BMP_pressure;BME280_temperature;BME280_humidity;BME280_pressure;Samples;Min_cycle;Max_cycle;Signal;HPM_P1;HPM_P2
2021/08/03 00:06:00;;;;;;;8.43;6.22;;;13.40;99.90;;;;;;6705856;88;20736;-78
2021/08/03 00:16:03;;;;;;;8.45;5.78;;;13.50;99.90;;;;;;6706615;88;20193;-78
2021/08/03 00:26:04;;;;;;;7.90;5.95;;;13.50;99.90;;;;;;6704534;88;20726;-78
2021/08/03 00:36:04;;;;;;;9.07;6.00;;;13.50;99.90;;;;;;6700629;88;20201;-78
2021/08/03 00:46:05;;;;;;;8.80;6.17;;;13.60;99.90;;;;;;6705635;88;20533;-78
2021/08/03 00:56:06;;;;;;;11.43;6.40;;;13.60;99.90;;;;;;6706208;88;20608;-78
2021/08/03 01:06:20;;;;;;;11.65;7.53;;;13.60;99.90;;;;;;6706017;88;20287;-78
2021/08/03 01:16:36;;;;;;;12.20;7.03;;;13.60;99.90;;;;;;6705488;88;20239;-77
2021/08/03 01:26:52;;;;;;;10.77;7.20;;;13.40;99.90;;;;;;6705108;88;20205;-78
2021/08/03 01:36:56;;;;;;;9.63;6.93;;;13.40;99.90;;;;;;6703585;88;20728;-77
2021/08/03 01:46:59;;;;;;;12.13;7.20;;;13.40;99.90;;;;;;6719923;88;20195;-76
2021/08/03 01:57:01;;;;;;;11.27;7.03;;;13.40;99.90;;;;;;6703809;88;20718;-77
2021/08/03 02:07:02;;;;;;;12.90;7.95;;;13.40;99.90;;;;;;6721127;88;20175;-76
2021/08/03 02:17:02;;;;;;;11.05;7.10;;;13.60;99.90;;;;;;6705980;88;20264;-77
2021/08/03 02:27:03;;;;;;;12.30;7.40;;;13.90;99.90;;;;;;6704201;88;20222;-77
2021/08/03 02:48:14;;;;;;;14.00;8.38;;;13.80;99.90;;;;;;6739848;88;20305;-78
2021/08/03 02:58:21;;;;;;;14.15;8.73;;;13.60;99.90;;;;;;6740573;88;20207;-78
2021/08/03 03:08:25;;;;;;;16.05;9.20;;;13.60;99.90;;;;;;6745191;88;20207;-78
2021/08/03 03:18:26;;;;;;;19.35;10.73;;;13.70;99.90;;;;;;6743782;88;20350;-78
2021/08/03 03:28:33;;;;;;;17.47;10.40;;;13.80;99.90;;;;;;6749460;88;20372;-78
2021/08/03 03:38:38;;;;;;;17.17;10.32;;;13.80;99.90;;;;;;6749200;88;20852;-78
2021/08/03 03:48:47;;;;;;;16.77;10.33;;;13.80;99.90;;;;;;6735126;88;20620;-78
2021/08/03 03:58:55;;;;;;;20.80;11.00;;;13.80;99.90;;;;;;6731391;88;20213;-78
2021/08/03 04:08:56;;;;;;;17.60;10.60;;;13.80;99.90;;;;;;6729314;88;20196;-78
2021/08/03 04:18:56;;;;;;;22.87;12.75;;;13.90;99.90;;;;;;6748921;88;20220;-79
2021/08/03 04:28:57;;;;;;;18.27;10.65;;;14.00;99.90;;;;;;6731083;88;20193;-78
2021/08/03 04:38:58;;;;;;;20.40;11.20;;;14.20;99.90;;;;;;6731527;88;20343;-78
2021/08/03 04:48:59;;;;;;;17.77;11.35;;;14.20;99.90;;;;;;6727576;88;20751;-78
2021/08/03 04:58:59;;;;;;;17.25;11.00;;;14.20;99.90;;;;;;6730633;88;20212;-78
2021/08/03 05:09:00;;;;;;;17.05;10.95;;;14.20;99.90;;;;;;6732177;88;20264;-78
2021/08/03 05:19:00;;;;;;;17.35;10.75;;;14.40;99.90;;;;;;6729882;88;20213;-78
2021/08/03 05:29:02;;;;;;;15.48;9.95;;;14.40;99.90;;;;;;6728096;88;20311;-79
2021/08/03 05:39:03;;;;;;;17.25;9.55;;;14.60;99.90;;;;;;6727525;88;20786;-78
2021/08/03 05:49:03;;;;;;;15.65;9.45;;;14.80;99.90;;;;;;6719324;88;20698;-79
2021/08/03 05:59:04;;;;;;;9.95;7.43;;;14.90;99.90;;;;;;6723461;88;20197;-79
2021/08/03 06:09:10;;;;;;;12.57;8.25;;;15.20;99.90;;;;;;6721980;88;20208;-78
2021/08/03 06:19:14;;;;;;;13.13;7.62;;;15.30;99.90;;;;;;6722031;88;20692;-78
2021/08/03 06:29:16;;;;;;;12.13;7.53;;;15.40;99.90;;;;;;6722653;88;20244;-77
2021/08/03 06:39:16;;;;;;;12.40;7.82;;;15.60;99.90;;;;;;6720465;88;20192;-77
2021/08/03 06:49:18;;;;;;;12.60;7.68;;;15.60;99.90;;;;;;6716383;88;20326;-78
2021/08/03 06:59:31;;;;;;;11.48;6.80;;;15.50;99.90;;;;;;6719584;88;20256;-77
2021/08/03 07:09:32;;;;;;;10.70;7.30;;;15.60;99.90;;;;;;6726862;88;20188;-78
2021/08/03 07:19:35;;;;;;;16.02;8.68;;;15.60;99.90;;;;;;6720212;88;20202;-77
2021/08/03 07:29:35;;;;;;;11.38;8.48;;;15.40;99.90;;;;;;6718942;88;20211;-79
2021/08/03 07:39:37;;;;;;;16.50;9.57;;;15.50;99.90;;;;;;6721546;88;20652;-79
2021/08/03 07:49:38;;;;;;;15.77;8.80;;;15.30;99.90;;;;;;6740817;88;20303;-78
2021/08/03 07:59:38;;;;;;;14.18;9.90;;;15.30;99.90;;;;;;6743207;88;20691;-78
2021/08/03 08:09:39;;;;;;;17.02;10.55;;;15.40;99.90;;;;;;6743606;88;20216;-77
2021/08/03 08:19:40;;;;;;;18.00;11.15;;;15.30;99.90;;;;;;6744233;88;20254;-78
2021/08/03 08:29:41;;;;;;;22.35;13.70;;;15.30;99.90;;;;;;6738593;88;20205;-77
2021/08/03 08:39:42;;;;;;;20.35;12.80;;;15.30;99.90;;;;;;6735735;77;20238;-77
2021/08/03 08:49:47;;;;;;;22.67;12.20;;;15.50;99.90;;;;;;6737397;88;20234;-76
2021/08/03 08:59:47;;;;;;;17.63;10.50;;;15.60;99.90;;;;;;6737714;88;20197;-76
2021/08/03 09:09:48;;;;;;;19.05;11.05;;;15.60;99.90;;;;;;6741620;88;20215;-78
2021/08/03 09:19:48;;;;;;;12.10;8.97;;;15.60;99.90;;;;;;6741268;88;20195;-78
2021/08/03 09:29:49;;;;;;;15.98;10.15;;;15.70;99.90;;;;;;6741532;88;20538;-77
2021/08/03 09:39:49;;;;;;;15.35;9.90;;;15.90;99.90;;;;;;6741554;88;20209;-78
2021/08/03 09:49:56;;;;;;;14.13;7.90;;;16.10;99.90;;;;;;6739793;88;20356;-78
2021/08/03 09:59:56;;;;;;;10.20;6.85;;;16.40;99.90;;;;;;6739611;88;20721;-77
2021/08/03 10:09:57;;;;;;;11.48;6.82;;;16.50;99.90;;;;;;6739302;88;20330;-77
2021/08/03 10:19:58;;;;;;;11.68;6.47;;;16.60;99.90;;;;;;6738584;88;20226;-77
2021/08/03 10:29:59;;;;;;;12.43;6.62;;;16.90;99.90;;;;;;6739015;88;20214;-78
2021/08/03 10:40:00;;;;;;;9.05;6.72;;;17.00;99.90;;;;;;6738566;88;20287;-76
2021/08/03 10:50:07;;;;;;;6.68;4.75;;;17.30;99.90;;;;;;6739364;88;20217;-77
2021/08/03 11:00:08;;;;;;;4.10;3.22;;;17.30;99.90;;;;;;6738924;88;20204;-77
2021/08/03 11:10:09;;;;;;;4.20;3.00;;;17.40;99.90;;;;;;6739297;88;20775;-77
2021/08/03 11:20:35;;;;;;;6.37;2.90;;;17.10;99.90;;;;;;6736518;88;20251;-78
2021/08/03 11:30:36;;;;;;;3.00;2.25;;;17.50;99.90;;;;;;6739891;88;20707;-77
2021/08/03 11:40:38;;;;;;;3.33;1.80;;;18.10;99.90;;;;;;6741152;88;20196;-77
2021/08/03 11:50:39;;;;;;;3.08;1.70;;;18.50;99.90;;;;;;6740257;88;20200;-77
2021/08/03 12:00:40;;;;;;;2.65;1.60;;;18.90;99.90;;;;;;6740592;88;20303;-75
2021/08/03 12:10:42;;;;;;;4.65;1.52;;;19.60;99.90;;;;;;6740687;88;20314;-77
2021/08/03 12:20:54;;;;;;;2.45;1.40;;;20.20;99.90;;;;;;6740725;88;20216;-76
2021/08/03 12:30:56;;;;;;;6.00;1.60;;;19.90;99.90;;;;;;6739994;88;20194;-78
2021/08/03 12:40:56;;;;;;;3.28;1.40;;;19.80;99.90;;;;;;6734267;88;20200;-77
2021/08/03 12:51:02;;;;;;;2.30;1.42;;;19.50;99.90;;;;;;6750285;88;20667;-78
2021/08/03 13:01:15;;;;;;;2.65;1.70;;;18.80;99.90;;;;;;6744675;88;20210;-77
2021/08/03 13:11:18;;;;;;;3.53;2.17;;;18.00;99.90;;;;;;6760711;88;20222;-78
2021/08/03 13:21:19;;;;;;;5.62;2.20;;;17.50;99.90;;;;;;6740397;88;20225;-77
2021/08/03 13:31:19;;;;;;;4.68;2.50;;;17.30;99.90;;;;;;6741603;88;20185;-77
2021/08/03 13:41:20;;;;;;;4.80;2.35;;;17.00;99.90;;;;;;6741187;88;20246;-76
2021/08/03 13:51:21;;;;;;;5.07;2.50;;;16.90;99.90;;;;;;6735434;88;20661;-77
2021/08/03 14:01:21;;;;;;;4.65;1.80;;;16.90;99.90;;;;;;6741524;88;20612;-77
2021/08/03 14:11:22;;;;;;;3.85;2.40;;;16.40;99.90;;;;;;6741289;88;20785;-77
2021/08/03 14:21:24;;;;;;;8.73;2.80;;;16.40;99.90;;;;;;6740999;88;20180;-77
2021/08/03 14:31:31;;;;;;;3.22;2.00;;;16.70;99.90;;;;;;6739930;88;20179;-79
2021/08/03 14:41:52;;;;;;;4.37;1.70;;;16.60;99.90;;;;;;6736001;77;20697;-77
2021/08/03 14:51:53;;;;;;;5.25;2.08;;;16.30;99.90;;;;;;6699981;88;20191;-77
2021/08/03 15:01:53;;;;;;;3.20;1.95;;;16.30;99.90;;;;;;6694984;88;20657;-76
2021/08/03 15:11:54;;;;;;;4.75;1.10;;;16.90;99.90;;;;;;6693742;88;20244;-76
2021/08/03 15:21:54;;;;;;;2.37;1.15;;;17.40;99.90;;;;;;6681972;89;20228;-77
2021/08/03 15:31:59;;;;;;;2.08;1.40;;;17.30;99.90;;;;;;6682562;89;20245;-77
2021/08/03 15:41:59;;;;;;;1.80;1.10;;;17.10;99.90;;;;;;6682256;89;20198;-77
2021/08/03 15:52:00;;;;;;;1.73;1.10;;;17.30;99.90;;;;;;6682169;89;20762;-77
2021/08/03 16:02:00;;;;;;;1.80;0.90;;;17.80;99.90;;;;;;6682456;88;20205;-77
2021/08/03 16:12:01;;;;;;;2.55;1.27;;;17.60;99.90;;;;;;6683383;88;20322;-77
2021/08/03 16:22:03;;;;;;;2.60;1.50;;;17.70;99.90;;;;;;6683405;88;20678;-77
2021/08/03 16:32:06;;;;;;;3.78;1.60;;;17.80;99.90;;;;;;6683298;88;20226;-77
2021/08/03 16:42:08;;;;;;;3.55;1.77;;;17.90;99.90;;;;;;6683880;88;20664;-77
2021/08/03 16:52:10;;;;;;;3.47;1.75;;;18.10;99.90;;;;;;6689774;88;20205;-77
2021/08/03 17:02:22;;;;;;;2.75;1.80;;;18.10;99.90;;;;;;6683405;88;20252;-77
2021/08/03 17:12:31;;;;;;;2.62;1.70;;;18.50;99.90;;;;;;6684519;88;20182;-77
2021/08/03 17:22:34;;;;;;;2.50;1.80;;;18.30;99.90;;;;;;6682226;88;20679;-78
2021/08/03 17:32:37;;;;;;;2.80;2.00;;;18.10;99.90;;;;;;6687532;88;20789;-78
2021/08/03 17:42:39;;;;;;;4.70;2.20;;;17.90;99.90;;;;;;6683411;88;20210;-78
2021/08/03 17:52:42;;;;;;;4.35;2.70;;;18.10;99.90;;;;;;6685731;88;20334;-78
2021/08/03 18:02:44;;;;;;;3.47;2.17;;;18.00;99.90;;;;;;6685496;88;20690;-78
2021/08/03 18:12:47;;;;;;;3.33;2.03;;;17.90;99.90;;;;;;6682336;88;20211;-78
2021/08/03 18:22:48;;;;;;;3.95;2.28;;;18.40;99.90;;;;;;6687357;88;20230;-78
2021/08/03 18:32:52;;;;;;;4.87;2.35;;;18.60;99.90;;;;;;6687491;88;20619;-79
2021/08/03 18:42:55;;;;;;;3.12;1.83;;;18.10;99.90;;;;;;6685345;89;20800;-77
2021/08/03 18:52:55;;;;;;;3.72;2.20;;;18.00;99.90;;;;;;6686206;88;20204;-78
2021/08/03 19:02:57;;;;;;;3.62;2.33;;;17.50;99.90;;;;;;6687209;89;20217;-78
2021/08/03 19:13:08;;;;;;;4.80;3.08;;;17.30;99.90;;;;;;6689101;89;20248;-79
2021/08/03 19:23:10;;;;;;;4.75;3.10;;;17.10;99.90;;;;;;6686843;89;20224;-78
2021/08/03 19:33:11;;;;;;;7.00;4.28;;;16.90;99.90;;;;;;6683673;88;20265;-78
2021/08/03 19:43:12;;;;;;;13.15;6.40;;;16.80;99.90;;;;;;6689474;88;20708;-78
2021/08/03 19:53:14;;;;;;;15.90;9.63;;;16.40;99.90;;;;;;6685961;88;20228;-78
2021/08/03 20:03:16;;;;;;;21.85;13.45;;;16.40;99.90;;;;;;6688738;88;20684;-78
2021/08/03 20:13:17;;;;;;;28.00;16.33;;;16.10;99.90;;;;;;6695136;88;20231;-78
2021/08/03 20:23:17;;;;;;;25.70;16.15;;;15.90;99.90;;;;;;6703992;88;20235;-78
2021/08/03 20:33:25;;;;;;;28.10;17.65;;;16.00;99.90;;;;;;6697204;88;20332;-78
2021/08/03 20:43:27;;;;;;;30.00;17.15;;;15.80;99.90;;;;;;6725794;77;20237;-76
2021/08/03 20:53:29;;;;;;;26.35;17.87;;;15.70;99.90;;;;;;6729976;88;20196;-77
2021/08/03 21:03:44;;;;;;;31.37;17.90;;;15.80;99.90;;;;;;6727445;88;20222;-77
2021/08/03 21:13:46;;;;;;;28.38;18.90;;;15.60;99.90;;;;;;6731070;88;20364;-76
2021/08/03 21:23:46;;;;;;;31.00;18.30;;;15.60;99.90;;;;;;6730779;88;20323;-77
2021/08/03 21:33:47;;;;;;;30.17;18.17;;;15.70;99.90;;;;;;6731641;88;20244;-76
2021/08/03 21:43:47;;;;;;;27.48;18.92;;;15.50;99.90;;;;;;6730987;88;20325;-76
2021/08/03 21:53:48;;;;;;;28.00;18.12;;;15.30;99.90;;;;;;6730894;88;20327;-76
2021/08/03 22:03:48;;;;;;;26.42;18.20;;;15.40;99.90;;;;;;6730908;88;20234;-76
2021/08/03 22:13:50;;;;;;;25.55;17.25;;;15.20;99.90;;;;;;6730795;88;20188;-76
2021/08/03 22:23:50;;;;;;;26.83;18.00;;;15.20;99.90;;;;;;6730227;88;20210;-76
2021/08/03 22:33:51;;;;;;;31.73;18.67;;;15.00;99.90;;;;;;6731597;88;20201;-76
2021/08/03 22:43:51;;;;;;;29.33;18.80;;;15.20;99.90;;;;;;6728688;88;20220;-75
2021/08/03 22:53:52;;;;;;;27.00;17.40;;;14.90;99.90;;;;;;6734952;88;20244;-77
2021/08/03 23:03:52;;;;;;;30.17;19.12;;;14.70;99.90;;;;;;6738647;88;20192;-75
2021/08/03 23:13:53;;;;;;;30.27;19.83;;;14.60;99.90;;;;;;6748969;88;20213;-76
2021/08/03 23:23:53;;;;;;;32.58;19.90;;;14.50;99.90;;;;;;6728465;88;20192;-76
2021/08/03 23:33:54;;;;;;;29.77;18.48;;;14.40;99.90;;;;;;6732237;88;20225;-76
2021/08/03 23:43:54;;;;;;;29.95;20.00;;;14.20;99.90;;;;;;6731853;88;20177;-75
2021/08/03 23:53:55;;;;;;;31.30;20.37;;;14.50;99.90;;;;;;6731881;88;20873;-76
